createdAt,value
2023-03-17T00:01:14.610Z,3.88
2023-03-17T00:03:42.921Z,3.85
2023-03-17T00:06:16.800Z,3.82
2023-03-17T00:08:45.831Z,3.80
2023-03-17T00:11:17.553Z,3.83
2023-03-17T00:13:46.244Z,3.76
2023-03-17T00:16:20.107Z,3.61
2023-03-17T00:18:47.844Z,3.75
2023-03-17T00:21:16.735Z,3.69
2023-03-17T00:23:51.880Z,3.77
2023-03-17T00:26:19.739Z,3.72
2023-03-17T00:28:46.382Z,3.76
2023-03-17T00:31:15.741Z,3.76
2023-03-17T00:33:45.277Z,3.78
2023-03-17T00:36:17.976Z,3.75
2023-03-17T00:38:46.089Z,3.69
2023-03-17T00:41:13.323Z,3.72
2023-03-17T00:43:40.943Z,3.78
2023-03-17T00:46:21.978Z,3.76
2023-03-17T00:48:48.904Z,3.78
2023-03-17T00:51:18.388Z,3.82
2023-03-17T00:53:45.862Z,3.81
2023-03-17T00:56:21.121Z,3.81
2023-03-17T00:58:48.942Z,3.85
2023-03-17T01:01:16.047Z,3.88
2023-03-17T01:03:42.642Z,3.89
2023-03-17T01:06:12.783Z,3.94
2023-03-17T01:08:41.079Z,4.00
2023-03-17T01:11:18.828Z,4.01
2023-03-17T01:13:46.656Z,4.03
2023-03-17T01:16:14.152Z,3.97
2023-03-17T01:18:41.134Z,4.06
2023-03-17T01:21:08.403Z,4.07
2023-03-17T01:23:35.002Z,4.07
2023-03-17T01:26:01.731Z,4.08
2023-03-17T01:28:28.494Z,4.14
2023-03-17T01:30:55.542Z,4.08
2023-03-17T01:33:22.284Z,4.23
2023-03-17T01:35:50.700Z,4.21
2023-03-17T01:38:17.576Z,3.99
2023-03-17T01:40:48.095Z,4.08
2023-03-17T01:43:17.705Z,4.09
2023-03-17T01:46:14.940Z,4.00
2023-03-17T01:48:46.568Z,4.00
2023-03-17T01:51:18.952Z,3.97
2023-03-17T01:53:49.018Z,4.01
2023-03-17T01:56:16.690Z,3.97
2023-03-17T01:58:45.621Z,3.88
2023-03-17T02:01:12.308Z,3.97
2023-03-17T02:03:39.051Z,4.05
2023-03-17T02:06:07.365Z,4.08
2023-03-17T02:08:33.929Z,4.02
2023-03-17T02:11:02.187Z,4.05
2023-03-17T02:13:29.413Z,4.02
2023-03-17T02:15:57.005Z,3.97
2023-03-17T02:18:24.121Z,3.98
2023-03-17T02:20:50.901Z,4.01
2023-03-17T02:23:24.971Z,4.04
2023-03-17T02:25:53.607Z,3.91
2023-03-17T02:28:26.053Z,4.02
2023-03-17T02:30:52.872Z,3.91
2023-03-17T02:33:19.687Z,4.00
2023-03-17T02:35:47.057Z,3.99
2023-03-17T02:38:13.627Z,3.97
2023-03-17T02:40:40.699Z,3.95
2023-03-17T02:43:07.211Z,3.99
2023-03-17T02:45:33.738Z,4.02
2023-03-17T02:48:01.180Z,4.00
2023-03-17T02:50:29.160Z,3.94
2023-03-17T02:52:56.192Z,3.83
2023-03-17T02:55:23.047Z,3.70
2023-03-17T02:57:49.609Z,3.88
2023-03-17T03:00:16.511Z,3.95
2023-03-17T03:02:43.359Z,4.04
2023-03-17T03:05:10.871Z,3.94
2023-03-17T03:07:37.527Z,4.05
2023-03-17T03:10:05.574Z,4.16
2023-03-17T03:12:32.145Z,4.16
2023-03-17T03:14:58.969Z,4.11
2023-03-17T03:17:25.523Z,4.24
2023-03-17T03:19:52.366Z,4.31
2023-03-17T03:22:18.946Z,4.36
2023-03-17T03:24:45.595Z,4.32
2023-03-17T03:27:12.159Z,4.37
2023-03-17T03:29:38.824Z,4.33
2023-03-17T03:32:05.723Z,4.38
2023-03-17T03:34:32.327Z,4.41
2023-03-17T03:36:58.859Z,4.41
2023-03-17T03:39:25.795Z,4.40
2023-03-17T03:41:52.330Z,4.44
2023-03-17T03:44:19.064Z,4.45
2023-03-17T03:46:45.794Z,4.43
2023-03-17T03:49:12.480Z,4.41
2023-03-17T03:51:38.993Z,4.48
2023-03-17T03:54:05.714Z,4.47
2023-03-17T03:56:32.645Z,4.47
2023-03-17T03:58:59.157Z,4.46
2023-03-17T04:01:25.677Z,4.49
2023-03-17T04:03:52.194Z,4.53
2023-03-17T04:06:18.841Z,4.46
2023-03-17T04:08:45.862Z,4.53
2023-03-17T04:11:12.473Z,4.51
2023-03-17T04:13:39.064Z,4.48
2023-03-17T04:16:06.222Z,4.47
2023-03-17T04:18:32.830Z,4.53
2023-03-17T04:20:59.774Z,4.55
2023-03-17T04:23:26.329Z,4.54
2023-03-17T04:25:54.081Z,4.50
2023-03-17T04:28:22.492Z,4.51
2023-03-17T04:30:49.138Z,4.48
2023-03-17T04:33:15.643Z,4.56
2023-03-17T04:35:42.380Z,4.54
2023-03-17T04:38:11.803Z,4.58
2023-03-17T04:40:38.381Z,4.71
2023-03-17T04:43:04.928Z,4.71
2023-03-17T04:45:31.619Z,4.78
2023-03-17T04:47:58.196Z,4.63
2023-03-17T04:50:25.146Z,4.75
2023-03-17T04:52:52.050Z,4.72
2023-03-17T04:55:18.681Z,4.67
2023-03-17T04:57:45.318Z,4.78
2023-03-17T05:00:13.056Z,4.67
2023-03-17T05:02:39.729Z,4.69
2023-03-17T05:05:06.698Z,4.77
2023-03-17T05:07:34.218Z,4.76
2023-03-17T05:10:02.190Z,4.76
2023-03-17T05:12:28.780Z,4.72
2023-03-17T05:14:55.504Z,4.68
2023-03-17T05:17:22.238Z,4.84
2023-03-17T05:19:48.759Z,4.83
2023-03-17T05:22:15.583Z,4.81
2023-03-17T05:24:42.304Z,4.84
2023-03-17T05:27:08.964Z,4.91
2023-03-17T05:29:35.566Z,5.06
2023-03-17T05:32:02.110Z,5.20
2023-03-17T05:34:28.648Z,5.28
2023-03-17T05:36:55.454Z,5.29
2023-03-17T05:39:22.076Z,5.34
2023-03-17T05:41:48.671Z,5.29
2023-03-17T05:44:16.487Z,5.27
2023-03-17T05:46:43.108Z,5.27
2023-03-17T05:49:10.146Z,5.31
2023-03-17T05:51:37.129Z,5.23
2023-03-17T05:54:04.222Z,5.26
2023-03-17T05:56:33.873Z,5.36
2023-03-17T05:59:01.691Z,5.41
2023-03-17T06:01:28.881Z,5.30
2023-03-17T06:03:55.826Z,5.25
2023-03-17T06:06:24.579Z,5.32
2023-03-17T06:08:51.777Z,5.28
2023-03-17T06:11:20.658Z,5.31
2023-03-17T06:13:47.795Z,5.12
2023-03-17T06:16:14.665Z,5.28
2023-03-17T06:18:41.535Z,5.43
2023-03-17T06:21:08.148Z,5.50
2023-03-17T06:23:34.785Z,5.53
2023-03-17T06:26:01.568Z,5.64
2023-03-17T06:28:28.184Z,5.68
2023-03-17T06:30:54.773Z,5.83
2023-03-17T06:33:21.979Z,5.94
2023-03-17T06:35:48.637Z,5.89
2023-03-17T06:38:15.246Z,5.90
2023-03-17T06:40:41.912Z,5.88
2023-03-17T06:43:08.527Z,5.87
2023-03-17T06:45:35.733Z,5.92
2023-03-17T06:48:02.352Z,5.92
2023-03-17T06:50:29.075Z,5.97
2023-03-17T06:52:56.044Z,6.09
2023-03-17T06:55:22.797Z,6.18
2023-03-17T06:57:51.181Z,6.31
2023-03-17T07:00:19.259Z,6.41
2023-03-17T07:02:46.241Z,6.58
2023-03-17T07:05:14.004Z,6.59
2023-03-17T07:07:41.135Z,6.72
2023-03-17T07:10:10.406Z,6.79
2023-03-17T07:12:37.790Z,7.00
2023-03-17T07:15:04.433Z,6.96
2023-03-17T07:17:31.109Z,7.07
2023-03-17T07:19:57.678Z,7.16
2023-03-17T07:22:24.265Z,7.21
2023-03-17T07:24:51.959Z,7.26
2023-03-17T07:27:21.525Z,7.34
2023-03-17T07:29:49.329Z,7.34
2023-03-17T07:32:15.902Z,7.45
2023-03-17T07:34:42.754Z,7.17
2023-03-17T07:37:10.374Z,7.23
2023-03-17T07:39:36.935Z,7.32
2023-03-17T07:42:03.617Z,7.33
2023-03-17T07:44:30.620Z,7.41
2023-03-17T07:46:57.450Z,7.42
2023-03-17T07:49:40.121Z,7.41
2023-03-17T07:52:09.549Z,7.47
2023-03-17T07:54:37.645Z,7.66
2023-03-17T07:57:05.494Z,7.70
2023-03-17T07:59:32.692Z,7.80
2023-03-17T08:02:01.349Z,7.94
2023-03-17T08:04:28.113Z,8.00
2023-03-17T08:06:54.821Z,8.03
2023-03-17T08:09:25.048Z,7.99
2023-03-17T08:11:51.800Z,7.88
2023-03-17T08:14:18.820Z,7.84
2023-03-17T08:16:45.508Z,7.71
2023-03-17T08:19:12.322Z,7.57
2023-03-17T08:21:38.927Z,7.53
2023-03-17T08:24:05.950Z,7.58
2023-03-17T08:26:32.682Z,7.65
2023-03-17T08:28:59.694Z,7.69
2023-03-17T08:31:26.391Z,7.74
2023-03-17T08:33:54.686Z,7.80
2023-03-17T08:36:21.941Z,7.82
2023-03-17T08:38:48.900Z,7.74
2023-03-17T08:41:18.813Z,7.86
2023-03-17T08:43:46.082Z,7.79
2023-03-17T08:46:17.079Z,8.05
2023-03-17T08:48:45.303Z,8.27
2023-03-17T08:51:12.488Z,8.31
2023-03-17T08:53:39.824Z,8.36
2023-03-17T08:56:07.121Z,8.51
2023-03-17T08:58:35.474Z,8.66
2023-03-17T09:01:04.509Z,8.87
2023-03-17T09:03:32.712Z,9.33
2023-03-17T09:06:00.389Z,9.46
2023-03-17T09:08:27.980Z,9.65
2023-03-17T09:10:55.131Z,9.87
2023-03-17T09:13:22.774Z,9.96
2023-03-17T09:15:51.867Z,10.22
2023-03-17T09:18:21.927Z,11.19
2023-03-17T09:20:48.859Z,12.16
2023-03-17T09:23:16.002Z,12.40
2023-03-17T09:25:43.587Z,12.23
2023-03-17T09:28:12.322Z,11.91
2023-03-17T09:30:45.628Z,11.49
2023-03-17T09:33:13.640Z,11.14
2023-03-17T09:35:41.240Z,10.89
2023-03-17T09:38:09.097Z,10.81
2023-03-17T09:40:53.741Z,10.77
2023-03-17T09:43:26.111Z,11.20
2023-03-17T09:45:53.165Z,11.23
2023-03-17T09:49:01.112Z,11.81
2023-03-17T09:51:29.760Z,11.74
2023-03-17T09:54:00.432Z,11.99
2023-03-17T09:56:30.301Z,11.81
2023-03-17T09:59:30.942Z,11.46
2023-03-17T10:01:57.832Z,11.81
2023-03-17T10:04:25.017Z,11.97
2023-03-17T10:06:57.831Z,12.04
2023-03-17T10:09:27.046Z,11.97
2023-03-17T10:12:20.269Z,12.14
2023-03-17T10:14:49.491Z,12.25
2023-03-17T10:17:20.335Z,12.40
2023-03-17T10:20:05.776Z,12.47
2023-03-17T10:22:44.602Z,12.31
2023-03-17T10:25:19.570Z,12.51
2023-03-17T10:28:24.662Z,12.78
2023-03-17T10:30:51.484Z,13.02
2023-03-17T10:33:18.733Z,13.12
2023-03-17T10:35:45.582Z,13.03
2023-03-17T10:38:22.578Z,13.01
2023-03-17T10:41:07.260Z,13.33
2023-03-17T10:43:50.400Z,13.42
2023-03-17T10:46:25.758Z,13.41
2023-03-17T10:48:57.108Z,13.55
2023-03-17T10:51:32.755Z,13.60
2023-03-17T10:54:09.613Z,13.71
2023-03-17T10:56:39.994Z,13.85
2023-03-17T10:59:16.427Z,14.04
2023-03-17T11:01:54.670Z,14.16
2023-03-17T11:04:41.881Z,14.25
2023-03-17T11:07:15.479Z,13.75
2023-03-17T11:09:42.390Z,13.49
2023-03-17T11:12:34.352Z,13.59
2023-03-17T11:15:04.863Z,13.84
2023-03-17T11:17:37.629Z,13.60
2023-03-17T11:20:33.562Z,13.79
2023-03-17T11:23:17.973Z,13.69
2023-03-17T11:25:49.678Z,13.80
2023-03-17T11:28:20.675Z,13.96
2023-03-17T11:31:13.072Z,13.92
2023-03-17T11:33:57.347Z,13.82
2023-03-17T11:37:00.163Z,14.00
2023-03-17T11:39:31.361Z,13.60
2023-03-17T11:42:25.929Z,13.07
2023-03-17T11:44:55.516Z,12.50
2023-03-17T11:47:54.659Z,12.34
2023-03-17T11:51:12.549Z,12.79
2023-03-17T11:53:47.959Z,13.04
2023-03-17T11:56:21.862Z,13.00
2023-03-17T11:58:56.379Z,12.96
2023-03-17T12:01:28.989Z,12.78
2023-03-17T12:04:20.583Z,12.56
2023-03-17T12:06:57.783Z,12.68
2023-03-17T12:09:30.774Z,12.44
2023-03-17T12:11:58.844Z,12.23
2023-03-17T12:15:07.721Z,12.10
2023-03-17T12:17:44.667Z,12.07
2023-03-17T12:20:30.780Z,11.98
2023-03-17T12:23:45.379Z,12.26
2023-03-17T12:26:16.451Z,12.45
2023-03-17T12:29:02.270Z,12.58
2023-03-17T12:31:33.918Z,12.83
2023-03-17T12:34:17.887Z,12.92
2023-03-17T12:36:44.923Z,12.96
2023-03-17T12:39:27.280Z,13.08
2023-03-17T12:42:01.612Z,13.21
2023-03-17T12:45:18.718Z,13.28
2023-03-17T12:48:06.174Z,13.37
2023-03-17T12:50:38.715Z,13.24
2023-03-17T12:53:17.444Z,13.25
2023-03-17T12:55:47.299Z,13.11
2023-03-17T12:58:23.749Z,13.30
2023-03-17T13:01:24.336Z,13.14
2023-03-17T13:04:26.479Z,13.23
2023-03-17T13:07:17.293Z,13.19
2023-03-17T13:09:56.185Z,13.30
2023-03-17T13:12:44.463Z,13.53
2023-03-17T13:15:48.289Z,13.41
2023-03-17T13:18:15.433Z,13.47
2023-03-17T13:21:02.234Z,13.64
2023-03-17T13:23:39.663Z,13.48
2023-03-17T13:26:06.717Z,13.18
2023-03-17T13:28:40.749Z,13.06
2023-03-17T13:31:32.158Z,13.01
2023-03-17T13:34:13.100Z,12.83
2023-03-17T13:36:48.526Z,12.60
2023-03-17T13:39:46.716Z,12.57
2023-03-17T13:42:21.548Z,12.47
2023-03-17T13:44:56.916Z,12.61
2023-03-17T13:47:23.657Z,12.81
2023-03-17T13:49:53.048Z,12.80
2023-03-17T13:52:41.183Z,12.63
2023-03-17T13:55:23.477Z,12.20
2023-03-17T13:58:17.723Z,11.94
2023-03-17T14:00:50.770Z,11.94
2023-03-17T14:03:33.845Z,12.02
2023-03-17T14:06:06.383Z,12.00
2023-03-17T14:08:39.291Z,11.76
2023-03-17T14:11:22.338Z,11.73
2023-03-17T14:14:26.093Z,11.79
2023-03-17T14:17:02.831Z,11.83
2023-03-17T14:19:31.206Z,11.81
2023-03-17T14:22:19.889Z,11.82
2023-03-17T14:24:51.872Z,11.90
2023-03-17T14:27:18.811Z,11.99
2023-03-17T14:29:45.396Z,12.16
2023-03-17T14:32:18.308Z,12.17
2023-03-17T14:34:55.614Z,12.17
2023-03-17T14:37:23.383Z,11.91
2023-03-17T14:39:53.077Z,12.00
2023-03-17T14:42:31.105Z,12.09
2023-03-17T14:45:06.607Z,12.15
2023-03-17T14:47:40.021Z,11.97
2023-03-17T14:50:17.538Z,11.92
2023-03-17T14:52:44.667Z,12.05
2023-03-17T14:55:14.967Z,12.22
2023-03-17T14:57:41.957Z,12.18
2023-03-17T15:00:34.096Z,12.31
2023-03-17T15:03:05.770Z,12.23
2023-03-17T15:05:35.807Z,12.14
2023-03-17T15:08:03.832Z,12.18
2023-03-17T15:10:43.112Z,12.14
2023-03-17T15:13:12.332Z,11.96
2023-03-17T15:15:41.601Z,11.85
2023-03-17T15:18:13.345Z,11.84
2023-03-17T15:20:43.375Z,11.74
2023-03-17T15:23:25.021Z,11.70
2023-03-17T15:25:56.626Z,11.48
2023-03-17T15:28:28.533Z,11.35
2023-03-17T15:31:11.385Z,11.14
2023-03-17T15:33:39.822Z,11.11
2023-03-17T15:36:07.711Z,10.98
2023-03-17T15:38:34.462Z,10.74
2023-03-17T15:41:01.106Z,10.64
2023-03-17T15:43:27.706Z,10.64
2023-03-17T15:46:07.450Z,10.52
2023-03-17T15:48:36.409Z,10.36
2023-03-17T15:51:03.401Z,10.27
2023-03-17T15:53:32.069Z,10.31
2023-03-17T15:55:59.298Z,10.20
2023-03-17T15:58:26.252Z,10.19
2023-03-17T16:00:57.057Z,10.01
2023-03-17T16:03:23.663Z,10.12
2023-03-17T16:05:50.369Z,10.16
2023-03-17T16:08:18.091Z,10.13
2023-03-17T16:10:45.465Z,10.04
2023-03-17T16:13:11.988Z,10.10
2023-03-17T16:15:41.705Z,10.00
2023-03-17T16:18:18.209Z,9.97
2023-03-17T16:20:47.765Z,9.87
2023-03-17T16:23:17.894Z,9.76
2023-03-17T16:25:45.984Z,9.69
2023-03-17T16:28:19.020Z,9.65
2023-03-17T16:30:46.690Z,9.56
2023-03-17T16:33:19.705Z,9.49
2023-03-17T16:35:48.831Z,9.38
2023-03-17T16:38:20.880Z,9.42
2023-03-17T16:40:51.430Z,9.47
2023-03-17T16:43:27.453Z,9.41
2023-03-17T16:45:57.080Z,9.17
2023-03-17T16:48:24.325Z,9.32
2023-03-17T16:50:51.220Z,9.34
2023-03-17T16:53:18.016Z,9.18
2023-03-17T16:55:45.594Z,9.18
2023-03-17T16:58:17.699Z,9.22
2023-03-17T17:00:45.244Z,9.29
2023-03-17T17:03:12.245Z,9.05
2023-03-17T17:05:39.928Z,9.00
2023-03-17T17:08:06.761Z,9.11
2023-03-17T17:10:34.224Z,9.13
2023-03-17T17:13:02.390Z,9.15
2023-03-17T17:15:30.688Z,9.17
2023-03-17T17:18:02.087Z,9.19
2023-03-17T17:20:38.579Z,9.19
2023-03-17T17:23:10.115Z,9.16
2023-03-17T17:25:36.729Z,9.16
2023-03-17T17:28:03.565Z,9.07
2023-03-17T17:30:31.308Z,9.15
2023-03-17T17:32:59.799Z,9.14
2023-03-17T17:35:30.721Z,9.06
2023-03-17T17:37:59.379Z,9.01
2023-03-17T17:40:26.819Z,8.78
2023-03-17T17:42:53.697Z,8.68
2023-03-17T17:45:21.180Z,8.57
2023-03-17T17:47:48.331Z,8.47
2023-03-17T17:50:23.525Z,8.49
2023-03-17T17:52:50.741Z,8.50
2023-03-17T17:55:17.560Z,8.52
2023-03-17T17:57:44.191Z,8.56
2023-03-17T18:00:16.869Z,8.54
2023-03-17T18:02:44.039Z,8.52
2023-03-17T18:05:12.473Z,8.51
2023-03-17T18:07:39.813Z,8.44
2023-03-17T18:10:07.225Z,8.56
2023-03-17T18:12:33.711Z,8.65
2023-03-17T18:15:00.280Z,8.61
2023-03-17T18:17:27.301Z,8.36
2023-03-17T18:19:54.178Z,8.41
2023-03-17T18:22:21.732Z,8.44
2023-03-17T18:24:49.390Z,8.44
2023-03-17T18:27:16.840Z,8.38
2023-03-17T18:29:43.672Z,8.20
2023-03-17T18:32:11.426Z,8.07
2023-03-17T18:34:43.516Z,8.07
2023-03-17T18:37:15.401Z,7.98
2023-03-17T18:39:42.655Z,7.90
2023-03-17T18:42:09.793Z,7.83
2023-03-17T18:44:36.890Z,7.76
2023-03-17T18:47:03.986Z,7.98
2023-03-17T18:49:30.746Z,7.97
2023-03-17T18:51:59.182Z,7.96
2023-03-17T18:54:27.735Z,8.05
2023-03-17T18:56:54.944Z,8.06
2023-03-17T18:59:21.591Z,8.00
2023-03-17T19:01:48.179Z,7.92
2023-03-17T19:04:14.821Z,7.86
2023-03-17T19:06:42.685Z,7.79
2023-03-17T19:09:10.488Z,7.80
2023-03-17T19:11:39.241Z,7.75
2023-03-17T19:14:07.608Z,7.72
2023-03-17T19:16:35.225Z,7.66
2023-03-17T19:19:02.228Z,7.72
2023-03-17T19:21:28.809Z,7.72
2023-03-17T19:23:59.877Z,7.41
2023-03-17T19:26:27.278Z,7.55
2023-03-17T19:28:56.264Z,7.56
2023-03-17T19:31:24.861Z,7.50
2023-03-17T19:33:51.896Z,7.42
2023-03-17T19:36:18.739Z,7.43
2023-03-17T19:38:45.814Z,7.50
2023-03-17T19:41:13.541Z,7.38
2023-03-17T19:43:41.623Z,7.41
2023-03-17T19:46:11.189Z,7.43
2023-03-17T19:48:38.483Z,7.41
2023-03-17T19:51:05.288Z,7.38
2023-03-17T19:53:31.959Z,7.41
2023-03-17T19:55:58.569Z,7.46
2023-03-17T19:58:25.289Z,7.44
2023-03-17T20:00:51.879Z,7.50
2023-03-17T20:03:18.934Z,7.46
2023-03-17T20:05:46.528Z,7.41
2023-03-17T20:08:14.609Z,7.39
2023-03-17T20:10:41.354Z,7.29
2023-03-17T20:13:08.114Z,7.39
2023-03-17T20:15:35.122Z,7.35
2023-03-17T20:18:01.703Z,7.34
2023-03-17T20:20:28.360Z,7.38
2023-03-17T20:22:55.005Z,7.24
2023-03-17T20:25:21.877Z,7.27
2023-03-17T20:27:48.593Z,7.23
2023-03-17T20:30:16.138Z,7.27
2023-03-17T20:32:44.075Z,7.42
2023-03-17T20:35:11.080Z,7.18
2023-03-17T20:37:38.824Z,7.24
2023-03-17T20:40:08.632Z,7.31
2023-03-17T20:42:35.483Z,7.21
2023-03-17T20:45:03.544Z,7.19
2023-03-17T20:47:30.967Z,7.20
2023-03-17T20:49:58.950Z,7.22
2023-03-17T20:52:30.015Z,7.11
2023-03-17T20:54:56.923Z,6.96
2023-03-17T20:57:23.511Z,6.80
2023-03-17T20:59:51.338Z,6.73
2023-03-17T21:02:19.041Z,6.55
2023-03-17T21:04:48.137Z,6.43
2023-03-17T21:07:19.516Z,6.38
2023-03-17T21:09:46.798Z,6.25
2023-03-17T21:12:18.967Z,6.30
2023-03-17T21:14:48.292Z,6.25
2023-03-17T21:17:16.374Z,6.33
2023-03-17T21:19:43.341Z,6.20
2023-03-17T21:22:10.235Z,6.32
2023-03-17T21:24:38.499Z,6.36
2023-03-17T21:27:06.973Z,6.37
2023-03-17T21:29:34.769Z,6.32
2023-03-17T21:32:02.032Z,6.40
2023-03-17T21:34:30.774Z,6.31
2023-03-17T21:36:59.078Z,6.14
2023-03-17T21:39:28.983Z,6.26
2023-03-17T21:41:57.064Z,6.18
2023-03-17T21:44:23.632Z,6.12
2023-03-17T21:46:50.867Z,6.27
2023-03-17T21:49:18.799Z,6.32
2023-03-17T21:51:46.786Z,6.29
2023-03-17T21:54:14.539Z,6.36
2023-03-17T21:56:41.743Z,6.28
2023-03-17T21:59:11.087Z,6.23
2023-03-17T22:01:39.691Z,6.22
2023-03-17T22:04:07.310Z,6.19
2023-03-17T22:06:34.012Z,6.19
2023-03-17T22:09:00.862Z,6.08
2023-03-17T22:11:27.452Z,6.01
2023-03-17T22:13:54.003Z,5.96
2023-03-17T22:16:21.670Z,5.79
2023-03-17T22:18:48.646Z,5.76
2023-03-17T22:21:15.529Z,5.67
2023-03-17T22:23:42.545Z,5.69
2023-03-17T22:26:13.372Z,5.62
2023-03-17T22:28:41.000Z,5.62
2023-03-17T22:31:13.374Z,5.85
2023-03-17T22:33:40.716Z,5.81
2023-03-17T22:36:07.295Z,5.91
2023-03-17T22:38:34.435Z,5.94
2023-03-17T22:41:08.013Z,5.99
2023-03-17T22:43:36.632Z,6.00
2023-03-17T22:46:03.998Z,6.06
2023-03-17T22:48:32.658Z,5.98
2023-03-17T22:51:09.689Z,5.83
2023-03-17T22:53:37.404Z,5.67
2023-03-17T22:56:04.992Z,5.65
2023-03-17T22:58:32.060Z,5.58
2023-03-17T23:00:59.043Z,5.74
2023-03-17T23:03:26.934Z,5.87
2023-03-17T23:05:57.233Z,5.93
2023-03-17T23:08:24.358Z,5.93
2023-03-17T23:10:52.004Z,6.03
2023-03-17T23:13:20.163Z,5.85
2023-03-17T23:15:47.518Z,5.56
2023-03-17T23:18:14.134Z,5.54
2023-03-17T23:20:41.121Z,5.19
2023-03-17T23:23:09.054Z,5.29
2023-03-17T23:25:36.671Z,5.38
2023-03-17T23:28:04.117Z,5.38
2023-03-17T23:30:31.119Z,5.36
2023-03-17T23:32:58.176Z,5.34
2023-03-17T23:35:25.447Z,5.29
2023-03-17T23:37:52.115Z,5.30
2023-03-17T23:40:18.863Z,5.38
2023-03-17T23:42:49.030Z,5.36
2023-03-17T23:45:19.145Z,5.40
2023-03-17T23:47:47.176Z,5.36
2023-03-17T23:50:15.774Z,5.05
2023-03-17T23:52:43.298Z,5.11
2023-03-17T23:55:11.869Z,5.06
2023-03-17T23:57:39.128Z,5.10
